createdAt,value
2023-10-07T00:00:23.741Z,17.70
2023-10-07T00:03:00.714Z,17.60
2023-10-07T00:05:40.883Z,17.60
2023-10-07T00:08:15.654Z,17.60
2023-10-07T00:10:47.691Z,17.60
2023-10-07T00:13:24.650Z,17.60
2023-10-07T00:15:54.516Z,17.60
2023-10-07T00:18:29.064Z,17.50
2023-10-07T00:21:09.011Z,17.50
2023-10-07T00:23:42.803Z,17.50
2023-10-07T00:26:19.351Z,17.50
2023-10-07T00:29:07.625Z,17.50
2023-10-07T00:31:41.039Z,17.50
2023-10-07T00:34:16.152Z,17.50
2023-10-07T00:37:01.311Z,17.50
2023-10-07T00:39:50.849Z,17.50
2023-10-07T00:42:30.714Z,17.50
2023-10-07T00:45:08.611Z,17.40
2023-10-07T00:47:46.331Z,17.40
2023-10-07T00:50:19.785Z,17.50
2023-10-07T00:52:56.021Z,17.40
2023-10-07T00:55:38.848Z,17.40
2023-10-07T00:58:14.304Z,17.40
2023-10-07T01:00:49.641Z,17.40
2023-10-07T01:03:30.458Z,17.40
2023-10-07T01:06:14.787Z,17.40
2023-10-07T01:08:51.233Z,17.40
2023-10-07T01:11:22.761Z,17.40
2023-10-07T01:13:51.960Z,17.40
2023-10-07T01:16:34.939Z,17.40
2023-10-07T01:19:30.693Z,17.40
2023-10-07T01:25:22.290Z,17.40
2023-10-07T01:28:17.064Z,17.40
2023-10-07T01:31:03.078Z,17.40
2023-10-07T01:33:41.989Z,17.40
2023-10-07T01:36:23.683Z,17.40
2023-10-07T01:39:04.738Z,17.40
2023-10-07T01:41:41.588Z,17.40
2023-10-07T01:44:23.962Z,17.40
2023-10-07T01:46:58.263Z,17.30
2023-10-07T01:49:31.836Z,17.30
2023-10-07T01:52:26.101Z,17.30
2023-10-07T01:54:56.744Z,17.40
2023-10-07T01:57:35.484Z,17.30
2023-10-07T02:00:08.227Z,17.30
2023-10-07T02:02:58.907Z,17.30
2023-10-07T02:05:39.908Z,17.40
2023-10-07T02:08:25.915Z,17.40
2023-10-07T02:11:34.029Z,17.40
2023-10-07T02:14:16.720Z,17.40
2023-10-07T02:16:55.934Z,17.40
2023-10-07T02:19:35.180Z,17.50
2023-10-07T02:22:24.880Z,17.50
2023-10-07T02:25:04.370Z,17.50
2023-10-07T02:27:45.564Z,17.50
2023-10-07T02:30:26.438Z,17.50
2023-10-07T02:32:55.602Z,17.50
2023-10-07T02:35:38.863Z,17.50
2023-10-07T02:38:12.722Z,17.50
2023-10-07T02:40:51.766Z,17.50
2023-10-07T02:43:33.588Z,17.50
2023-10-07T02:46:07.767Z,17.50
2023-10-07T02:48:48.715Z,17.50
2023-10-07T02:51:23.678Z,17.50
2023-10-07T02:54:05.728Z,17.40
2023-10-07T02:57:11.229Z,17.50
2023-10-07T02:59:55.696Z,17.50
2023-10-07T03:02:44.647Z,17.50
2023-10-07T03:05:12.012Z,17.50
2023-10-07T03:08:04.142Z,17.50
2023-10-07T03:10:41.439Z,17.50
2023-10-07T03:13:32.636Z,17.60
2023-10-07T03:16:22.778Z,17.60
2023-10-07T03:19:03.224Z,17.50
2023-10-07T03:21:43.825Z,17.60
2023-10-07T03:24:15.971Z,17.60
2023-10-07T03:27:06.845Z,17.60
2023-10-07T03:29:39.238Z,17.60
2023-10-07T03:32:15.516Z,17.60
2023-10-07T03:37:29.993Z,17.60
2023-10-07T03:40:28.062Z,17.70
2023-10-07T03:42:57.488Z,17.70
2023-10-07T03:45:38.201Z,17.70
2023-10-07T03:48:28.090Z,17.70
2023-10-07T03:51:06.788Z,17.70
2023-10-07T03:53:58.356Z,17.80
2023-10-07T03:56:28.237Z,17.70
2023-10-07T03:59:10.275Z,17.80
2023-10-07T04:01:46.362Z,17.80
2023-10-07T04:04:15.353Z,17.80
2023-10-07T04:06:52.042Z,17.80
2023-10-07T04:09:34.057Z,17.80
2023-10-07T04:12:00.814Z,17.80
2023-10-07T04:14:38.940Z,17.80
2023-10-07T04:17:15.743Z,17.80
2023-10-07T04:20:14.667Z,17.80
2023-10-07T04:22:56.672Z,17.80
2023-10-07T04:25:31.712Z,17.90
2023-10-07T04:28:08.202Z,17.90
2023-10-07T04:30:55.457Z,17.90
2023-10-07T04:33:42.757Z,17.90
2023-10-07T04:36:53.462Z,17.90
2023-10-07T04:39:33.497Z,17.90
2023-10-07T04:42:04.814Z,17.90
2023-10-07T04:44:44.475Z,17.90
2023-10-07T04:47:46.346Z,17.90
2023-10-07T04:50:20.089Z,17.90
2023-10-07T04:53:03.977Z,17.90
2023-10-07T04:55:34.029Z,17.90
2023-10-07T04:58:00.985Z,17.90
2023-10-07T05:00:37.245Z,17.90
2023-10-07T05:03:09.560Z,17.90
2023-10-07T05:05:48.805Z,17.90
2023-10-07T05:08:25.602Z,17.90
2023-10-07T05:11:10.600Z,17.90
2023-10-07T05:13:57.527Z,17.90
2023-10-07T05:19:24.068Z,17.90
2023-10-07T05:22:10.728Z,17.90
2023-10-07T05:24:52.625Z,17.90
2023-10-07T05:27:22.294Z,17.90
2023-10-07T05:29:57.695Z,18.00
2023-10-07T05:32:45.665Z,17.90
2023-10-07T05:35:22.480Z,18.00
2023-10-07T05:38:09.262Z,17.90
2023-10-07T05:40:46.516Z,18.00
2023-10-07T05:43:18.028Z,18.00
2023-10-07T05:45:58.062Z,18.00
2023-10-07T05:48:29.303Z,18.00
2023-10-07T05:50:58.620Z,18.00
2023-10-07T05:53:37.648Z,18.00
2023-10-07T05:56:25.941Z,18.00
2023-10-07T06:01:55.347Z,18.00
2023-10-07T06:04:27.859Z,18.00
2023-10-07T06:06:59.457Z,18.00
2023-10-07T06:09:27.392Z,18.00
2023-10-07T06:12:04.481Z,18.00
2023-10-07T06:14:44.796Z,18.10
2023-10-07T06:17:21.532Z,18.10
2023-10-07T06:19:53.641Z,18.10
2023-10-07T06:22:29.163Z,18.10
2023-10-07T06:24:59.382Z,18.10
2023-10-07T06:27:30.851Z,18.10
2023-10-07T06:29:59.956Z,18.10
2023-10-07T06:33:08.009Z,18.10
2023-10-07T06:35:50.808Z,18.20
2023-10-07T06:38:32.328Z,18.20
2023-10-07T06:41:12.484Z,18.20
2023-10-07T06:43:46.488Z,18.20
2023-10-07T06:46:18.368Z,18.30
2023-10-07T06:48:51.306Z,18.30
2023-10-07T06:51:31.770Z,18.40
2023-10-07T06:54:04.517Z,18.40
2023-10-07T06:56:35.078Z,18.40
2023-10-07T06:59:04.265Z,18.50
2023-10-07T07:01:38.735Z,18.40
2023-10-07T07:04:20.075Z,18.50
2023-10-07T07:06:58.450Z,18.50
2023-10-07T07:09:45.254Z,18.60
2023-10-07T07:12:13.533Z,18.60
2023-10-07T07:14:47.519Z,18.60
2023-10-07T07:17:32.989Z,18.70
2023-10-07T07:20:12.138Z,18.70
2023-10-07T07:22:44.647Z,18.70
2023-10-07T07:25:18.876Z,18.70
2023-10-07T07:27:53.501Z,18.70
2023-10-07T07:30:21.410Z,18.70
2023-10-07T07:32:56.675Z,18.80
2023-10-07T07:35:39.942Z,18.80
2023-10-07T07:38:30.598Z,18.80
2023-10-07T07:41:08.313Z,18.80
2023-10-07T07:43:38.794Z,18.70
2023-10-07T07:46:26.521Z,18.70
2023-10-07T07:48:56.437Z,18.70
2023-10-07T07:51:27.836Z,18.80
2023-10-07T07:53:54.492Z,18.80
2023-10-07T07:56:21.419Z,18.80
2023-10-07T07:58:57.562Z,18.80
2023-10-07T08:01:49.345Z,18.90
2023-10-07T08:04:59.116Z,18.90
2023-10-07T08:07:31.987Z,18.90
2023-10-07T08:10:18.512Z,19.00
2023-10-07T08:13:44.810Z,19.00
2023-10-07T08:16:17.707Z,19.10
2023-10-07T08:18:47.968Z,19.10
2023-10-07T08:21:22.147Z,19.20
2023-10-07T08:23:59.335Z,19.20
2023-10-07T08:26:36.705Z,19.20
2023-10-07T08:29:29.005Z,19.30
2023-10-07T08:32:16.001Z,19.40
2023-10-07T08:34:50.643Z,19.50
2023-10-07T08:37:18.413Z,19.50
2023-10-07T08:39:47.703Z,19.60
2023-10-07T08:42:19.323Z,19.60
2023-10-07T08:44:52.982Z,19.60
2023-10-07T08:47:22.265Z,19.60
2023-10-07T08:49:53.241Z,19.60
2023-10-07T08:52:21.086Z,19.60
2023-10-07T08:54:48.204Z,19.60
2023-10-07T08:57:20.182Z,19.60
2023-10-07T08:59:54.092Z,19.60
2023-10-07T09:02:41.198Z,19.60
2023-10-07T09:05:17.760Z,19.60
2023-10-07T09:07:51.161Z,19.60
2023-10-07T09:10:20.942Z,19.60
2023-10-07T09:12:49.818Z,19.60
2023-10-07T09:15:26.838Z,19.60
2023-10-07T09:18:06.567Z,19.60
2023-10-07T09:20:37.643Z,19.60
2023-10-07T09:23:16.122Z,19.60
2023-10-07T09:25:47.824Z,19.60
2023-10-07T09:28:14.681Z,19.70
2023-10-07T09:30:44.473Z,19.70
2023-10-07T09:33:18.452Z,19.80
2023-10-07T09:35:51.991Z,19.80
2023-10-07T09:38:51.061Z,19.90
2023-10-07T09:41:25.270Z,19.90
2023-10-07T09:43:53.286Z,20.00
2023-10-07T09:49:01.869Z,20.10
2023-10-07T09:51:35.846Z,20.10
2023-10-07T09:54:38.184Z,20.20
2023-10-07T09:57:25.919Z,20.30
2023-10-07T10:00:39.112Z,20.30
2023-10-07T10:03:29.815Z,20.40
2023-10-07T10:06:29.640Z,20.50
2023-10-07T10:09:15.516Z,20.50
2023-10-07T10:11:56.611Z,20.60
2023-10-07T10:14:41.112Z,20.60
2023-10-07T10:17:13.415Z,20.60
2023-10-07T10:19:53.444Z,20.70
2023-10-07T10:22:25.050Z,20.70
2023-10-07T10:25:10.715Z,20.80
2023-10-07T10:27:45.865Z,20.90
2023-10-07T10:30:24.276Z,21.00
2023-10-07T10:32:55.810Z,21.00
2023-10-07T10:35:25.984Z,21.10
2023-10-07T10:37:58.736Z,21.10
2023-10-07T10:40:32.421Z,21.20
2023-10-07T10:43:01.506Z,21.30
2023-10-07T10:45:31.154Z,21.20
2023-10-07T10:48:02.885Z,21.30
2023-10-07T10:50:33.383Z,21.30
2023-10-07T10:53:01.308Z,21.30
2023-10-07T10:55:39.052Z,21.40
2023-10-07T10:58:23.893Z,21.40
2023-10-07T11:00:55.359Z,21.50
2023-10-07T11:03:22.594Z,21.50
2023-10-07T11:05:53.663Z,21.60
2023-10-07T11:08:25.205Z,21.60
2023-10-07T11:10:58.908Z,21.70
2023-10-07T11:13:28.017Z,21.70
2023-10-07T11:16:13.139Z,21.80
2023-10-07T11:18:46.267Z,21.90
2023-10-07T11:21:15.737Z,21.90
2023-10-07T11:23:55.493Z,21.90
2023-10-07T11:26:25.994Z,22.00
2023-10-07T11:28:53.536Z,22.10
2023-10-07T11:31:31.335Z,22.10
2023-10-07T11:34:00.753Z,22.20
2023-10-07T11:36:27.818Z,22.30
2023-10-07T11:38:57.174Z,22.30
2023-10-07T11:41:27.365Z,22.40
2023-10-07T11:43:54.711Z,22.40
2023-10-07T11:46:21.556Z,22.50
2023-10-07T11:48:51.067Z,22.50
2023-10-07T11:51:18.881Z,22.50
2023-10-07T11:53:46.933Z,22.60
2023-10-07T11:56:15.392Z,22.60
2023-10-07T11:58:43.458Z,22.70
2023-10-07T12:01:29.747Z,22.70
2023-10-07T12:04:05.905Z,22.80
2023-10-07T12:06:34.786Z,22.90
2023-10-07T12:09:25.477Z,22.90
2023-10-07T12:12:07.184Z,22.90
2023-10-07T12:14:57.277Z,23.10
2023-10-07T12:17:35.285Z,23.10
2023-10-07T12:20:29.921Z,23.20
2023-10-07T12:23:12.204Z,23.20
2023-10-07T12:26:01.396Z,23.40
2023-10-07T12:28:31.605Z,23.40
2023-10-07T12:31:15.408Z,23.50
2023-10-07T12:33:49.473Z,23.50
2023-10-07T12:36:39.379Z,23.50
2023-10-07T12:39:24.707Z,23.60
2023-10-07T12:42:08.277Z,23.70
2023-10-07T12:44:40.829Z,23.80
2023-10-07T12:47:33.706Z,23.80
2023-10-07T12:50:21.500Z,23.90
2023-10-07T12:52:54.128Z,23.90
2023-10-07T12:55:31.268Z,24.00
2023-10-07T12:58:45.844Z,24.10
2023-10-07T13:01:26.278Z,24.10
2023-10-07T13:04:03.587Z,24.20
2023-10-07T13:07:01.141Z,24.20
2023-10-07T13:09:42.279Z,24.30
2023-10-07T13:12:32.946Z,24.50
2023-10-07T13:15:17.665Z,24.60
2023-10-07T13:17:51.822Z,24.70
2023-10-07T13:20:29.819Z,24.80
2023-10-07T13:23:09.467Z,24.90
2023-10-07T13:25:41.279Z,25.00
2023-10-07T13:28:24.929Z,25.10
2023-10-07T13:31:00.392Z,25.20
2023-10-07T13:34:00.346Z,25.40
2023-10-07T13:36:40.618Z,25.60
2023-10-07T13:39:22.486Z,26.00
2023-10-07T13:42:00.459Z,26.50
2023-10-07T13:44:34.839Z,27.00
2023-10-07T13:47:09.433Z,27.50
2023-10-07T13:49:44.494Z,28.00
2023-10-07T13:52:35.677Z,28.40
2023-10-07T13:55:25.505Z,28.80
2023-10-07T13:58:16.292Z,29.40
2023-10-07T14:00:54.005Z,30.00
2023-10-07T14:03:46.897Z,30.60
2023-10-07T14:06:18.673Z,31.30
2023-10-07T14:08:53.362Z,31.90
2023-10-07T14:11:35.635Z,32.40
2023-10-07T14:14:16.691Z,32.90
2023-10-07T14:17:05.526Z,33.20
2023-10-07T14:19:48.358Z,33.50
2023-10-07T14:22:46.774Z,33.80
2023-10-07T14:28:16.960Z,34.40
2023-10-07T14:30:48.188Z,34.60
2023-10-07T14:33:22.317Z,34.80
2023-10-07T14:35:50.097Z,34.90
2023-10-07T14:38:17.394Z,35.10
2023-10-07T14:40:45.404Z,35.20
2023-10-07T14:43:14.889Z,35.30
2023-10-07T14:45:54.030Z,35.40
2023-10-07T14:48:22.425Z,35.40
2023-10-07T14:50:56.936Z,35.30
2023-10-07T14:53:25.138Z,35.10
2023-10-07T14:55:54.351Z,34.80
2023-10-07T14:58:21.557Z,34.60
2023-10-07T15:00:54.039Z,34.30
2023-10-07T15:03:53.596Z,34.00
2023-10-07T15:06:36.523Z,33.70
2023-10-07T15:09:12.838Z,33.20
2023-10-07T15:11:42.845Z,32.90
2023-10-07T15:14:10.158Z,32.70
2023-10-07T15:16:36.867Z,32.60
2023-10-07T15:19:06.638Z,32.60
2023-10-07T15:21:38.716Z,32.70
2023-10-07T15:24:07.583Z,32.80
2023-10-07T15:26:34.715Z,32.90
2023-10-07T15:29:06.877Z,33.00
2023-10-07T15:31:33.563Z,33.10
2023-10-07T15:34:05.686Z,33.10
2023-10-07T15:36:38.921Z,33.10
2023-10-07T15:39:06.392Z,33.00
2023-10-07T15:41:33.087Z,32.90
2023-10-07T15:44:02.065Z,32.80
2023-10-07T15:46:33.155Z,32.60
2023-10-07T15:49:08.597Z,32.60
2023-10-07T15:51:35.693Z,32.60
2023-10-07T15:54:04.944Z,32.50
2023-10-07T15:56:32.546Z,32.40
2023-10-07T15:59:05.952Z,32.10
2023-10-07T16:01:35.008Z,31.80
2023-10-07T16:04:01.770Z,31.60
2023-10-07T16:06:28.551Z,31.30
2023-10-07T16:08:55.230Z,30.80
2023-10-07T16:11:23.117Z,30.40
2023-10-07T16:13:53.420Z,30.00
2023-10-07T16:16:20.137Z,29.60
2023-10-07T16:18:47.222Z,29.20
2023-10-07T16:21:19.298Z,28.80
2023-10-07T16:23:48.636Z,28.50
2023-10-07T16:26:15.878Z,28.10
2023-10-07T16:28:49.674Z,27.80
2023-10-07T16:31:17.421Z,27.50
2023-10-07T16:33:44.579Z,27.20
2023-10-07T16:36:14.352Z,27.00
2023-10-07T16:38:42.586Z,26.70
2023-10-07T16:41:13.822Z,26.60
2023-10-07T16:43:40.542Z,26.40
2023-10-07T16:46:10.555Z,26.20
2023-10-07T16:48:44.403Z,26.10
2023-10-07T16:51:12.556Z,25.90
2023-10-07T16:53:41.119Z,25.70
2023-10-07T16:56:10.936Z,25.60
2023-10-07T16:58:38.044Z,25.50
2023-10-07T17:01:09.073Z,25.30
2023-10-07T17:03:36.564Z,25.20
2023-10-07T17:06:07.580Z,25.10
2023-10-07T17:08:34.323Z,25.00
2023-10-07T17:11:01.545Z,24.90
2023-10-07T17:13:36.894Z,24.80
2023-10-07T17:16:17.197Z,24.60
2023-10-07T17:19:03.743Z,24.60
2023-10-07T17:21:41.047Z,24.50
2023-10-07T17:24:25.075Z,24.40
2023-10-07T17:27:01.135Z,24.30
2023-10-07T17:29:28.787Z,24.20
2023-10-07T17:32:15.781Z,24.20
2023-10-07T17:34:54.650Z,24.10
2023-10-07T17:37:35.548Z,24.00
2023-10-07T17:40:10.563Z,24.00
2023-10-07T17:42:38.489Z,23.90
2023-10-07T17:45:21.955Z,23.90
2023-10-07T17:47:55.888Z,23.80
2023-10-07T17:50:29.646Z,23.80
2023-10-07T17:52:59.113Z,23.70
2023-10-07T17:55:41.246Z,23.70
2023-10-07T17:58:25.872Z,23.60
2023-10-07T18:00:55.358Z,23.60
2023-10-07T18:03:35.619Z,23.50
2023-10-07T18:06:12.354Z,23.40
2023-10-07T18:08:44.078Z,23.40
2023-10-07T18:11:18.314Z,23.30
2023-10-07T18:14:09.850Z,23.20
2023-10-07T18:16:59.097Z,23.20
2023-10-07T18:19:47.828Z,23.20
2023-10-07T18:22:35.058Z,23.10
2023-10-07T18:25:20.528Z,23.10
2023-10-07T18:27:56.213Z,23.00
2023-10-07T18:30:28.273Z,23.00
2023-10-07T18:33:03.738Z,23.00
2023-10-07T18:35:40.890Z,23.00
2023-10-07T18:38:13.913Z,23.00
2023-10-07T18:40:41.985Z,22.90
2023-10-07T18:46:10.161Z,22.90
2023-10-07T18:48:45.334Z,22.90
2023-10-07T18:51:21.557Z,22.90
2023-10-07T18:53:59.929Z,22.80
2023-10-07T18:56:27.592Z,22.80
2023-10-07T18:59:01.918Z,22.80
2023-10-07T19:01:48.770Z,22.70
2023-10-07T19:04:25.040Z,22.70
2023-10-07T19:07:08.524Z,22.70
2023-10-07T19:10:03.260Z,22.60
2023-10-07T19:12:43.337Z,22.60
2023-10-07T19:15:14.918Z,22.60
2023-10-07T19:17:46.628Z,22.50
2023-10-07T19:20:27.450Z,22.50
2023-10-07T19:23:03.854Z,22.50
2023-10-07T19:25:33.364Z,22.50
2023-10-07T19:28:05.307Z,22.40
2023-10-07T19:30:39.675Z,22.40
2023-10-07T19:33:12.533Z,22.40
2023-10-07T19:35:54.465Z,22.40
2023-10-07T19:38:52.272Z,22.30
2023-10-07T19:41:37.435Z,22.40
2023-10-07T19:44:12.567Z,22.30
2023-10-07T19:46:48.753Z,22.30
2023-10-07T19:49:22.066Z,22.30
2023-10-07T19:51:54.520Z,22.30
2023-10-07T19:54:24.848Z,22.30
2023-10-07T19:56:55.564Z,22.30
2023-10-07T19:59:39.201Z,22.20
2023-10-07T20:02:08.286Z,22.20
2023-10-07T20:04:43.408Z,22.20
2023-10-07T20:07:29.490Z,22.20
2023-10-07T20:10:18.422Z,22.20
2023-10-07T20:12:51.007Z,22.20
2023-10-07T20:15:32.815Z,22.10
2023-10-07T20:18:09.501Z,22.10
2023-10-07T20:20:44.137Z,22.10
2023-10-07T20:23:11.709Z,22.10
2023-10-07T20:25:53.658Z,22.00
2023-10-07T20:28:21.577Z,22.00
2023-10-07T20:30:56.155Z,22.00
2023-10-07T20:33:29.837Z,22.00
2023-10-07T20:36:00.800Z,22.00
2023-10-07T20:38:31.929Z,21.90
2023-10-07T20:41:07.040Z,21.90
2023-10-07T20:43:38.719Z,21.90
2023-10-07T20:46:10.116Z,21.90
2023-10-07T20:48:41.132Z,21.90
2023-10-07T20:54:07.508Z,21.90
2023-10-07T20:57:00.171Z,21.80
2023-10-07T20:59:43.758Z,21.80
2023-10-07T21:02:10.684Z,21.70
2023-10-07T21:04:40.174Z,21.70
2023-10-07T21:07:17.707Z,21.70
2023-10-07T21:09:57.968Z,21.60
2023-10-07T21:12:33.473Z,21.60
2023-10-07T21:15:12.151Z,21.60
2023-10-07T21:17:51.666Z,21.50
2023-10-07T21:20:23.940Z,21.50
2023-10-07T21:22:58.820Z,21.50
2023-10-07T21:25:33.764Z,21.50
2023-10-07T21:28:09.855Z,21.50
2023-10-07T21:30:47.696Z,21.40
2023-10-07T21:33:36.486Z,21.40
2023-10-07T21:36:19.936Z,21.40
2023-10-07T21:39:00.764Z,21.40
2023-10-07T21:41:48.489Z,21.40
2023-10-07T21:44:21.573Z,21.40
2023-10-07T21:47:05.105Z,21.40
2023-10-07T21:49:44.958Z,21.30
2023-10-07T21:52:38.573Z,21.30
2023-10-07T21:55:13.786Z,21.40
2023-10-07T21:57:42.843Z,21.30
2023-10-07T22:00:25.141Z,21.30
2023-10-07T22:03:03.960Z,21.30
2023-10-07T22:05:34.703Z,21.30
2023-10-07T22:08:27.001Z,21.40
2023-10-07T22:10:57.216Z,21.40
2023-10-07T22:13:43.741Z,21.30
2023-10-07T22:16:19.233Z,21.30
2023-10-07T22:18:48.827Z,21.30
2023-10-07T22:21:19.808Z,21.30
2023-10-07T22:24:06.225Z,21.30
2023-10-07T22:26:38.712Z,21.30
2023-10-07T22:29:14.459Z,21.30
2023-10-07T22:31:51.795Z,21.30
2023-10-07T22:34:22.715Z,21.30
2023-10-07T22:37:11.855Z,21.30
2023-10-07T22:39:47.890Z,21.30
2023-10-07T22:42:39.790Z,21.30
2023-10-07T22:45:20.122Z,21.30
2023-10-07T22:47:50.673Z,21.30
2023-10-07T22:50:41.067Z,21.30
2023-10-07T22:53:17.640Z,21.30
2023-10-07T22:55:56.147Z,21.30
2023-10-07T22:58:36.446Z,21.30
2023-10-07T23:01:26.927Z,21.30
2023-10-07T23:04:10.702Z,21.20
2023-10-07T23:07:06.223Z,21.30
2023-10-07T23:09:37.728Z,21.30
2023-10-07T23:12:35.071Z,21.20
2023-10-07T23:15:14.941Z,21.30
2023-10-07T23:18:05.308Z,21.20
2023-10-07T23:20:45.673Z,21.20
2023-10-07T23:23:43.147Z,21.20
2023-10-07T23:26:26.689Z,21.20
2023-10-07T23:29:18.997Z,21.20
2023-10-07T23:32:02.131Z,21.20
2023-10-07T23:34:55.851Z,21.20
2023-10-07T23:37:44.685Z,21.10
2023-10-07T23:40:30.649Z,21.10
2023-10-07T23:43:07.336Z,21.00
2023-10-07T23:46:02.587Z,21.00
2023-10-07T23:48:50.384Z,21.00
2023-10-07T23:51:34.702Z,21.00
2023-10-07T23:54:18.841Z,20.90
2023-10-07T23:56:53.515Z,20.90
2023-10-07T23:59:28.382Z,20.80
